createdAt,value
2022-11-05T04:33:16.356Z,3.70
2022-11-05T04:35:48.592Z,3.70
2022-11-05T04:38:20.021Z,3.80
2022-11-05T04:40:48.616Z,3.80
2022-11-05T04:43:19.055Z,3.90
2022-11-05T04:45:46.945Z,3.80
2022-11-05T04:48:14.480Z,3.80
2022-11-05T04:50:41.969Z,3.70
2022-11-05T04:53:12.936Z,3.90
2022-11-05T04:55:40.726Z,3.90
2022-11-05T04:58:09.408Z,3.90
2022-11-05T05:00:36.889Z,3.90
2022-11-05T05:03:04.489Z,3.90
2022-11-05T05:05:32.026Z,3.90
2022-11-05T05:08:03.301Z,4.00
2022-11-05T05:10:31.950Z,4.00
2022-11-05T05:12:59.392Z,4.00
2022-11-05T05:15:26.783Z,4.10
2022-11-05T05:17:54.269Z,4.00
2022-11-05T05:20:40.221Z,4.00
2022-11-05T05:23:07.887Z,3.90
2022-11-05T05:25:35.697Z,3.90
2022-11-05T05:28:03.082Z,4.00
2022-11-05T05:30:30.514Z,4.00
2022-11-05T05:33:02.066Z,4.00
2022-11-05T05:35:29.665Z,4.00
2022-11-05T05:37:57.038Z,4.00
2022-11-05T05:40:24.758Z,4.00
2022-11-05T05:42:56.095Z,4.00
2022-11-05T05:45:23.600Z,4.00
2022-11-05T05:47:51.047Z,4.00
2022-11-05T05:56:42.395Z,4.00
2022-11-05T05:59:10.068Z,4.00
2022-11-05T06:01:38.033Z,4.00
2022-11-05T06:04:05.787Z,4.20
2022-11-05T06:06:33.399Z,4.20
2022-11-05T06:09:01.075Z,4.30
2022-11-05T06:11:28.723Z,4.30
2022-11-05T06:13:56.304Z,4.30
2022-11-05T06:16:24.047Z,4.30
2022-11-05T06:18:51.727Z,4.40
2022-11-05T06:21:19.281Z,4.40
2022-11-05T06:23:48.348Z,4.40
2022-11-05T06:26:18.599Z,4.40
2022-11-05T06:28:46.470Z,4.40
2022-11-05T06:31:14.694Z,4.40
2022-11-05T06:33:42.320Z,4.50
2022-11-05T06:36:15.679Z,4.40
2022-11-05T06:38:43.465Z,4.50
2022-11-05T06:41:11.094Z,4.50
2022-11-05T06:43:39.010Z,4.60
2022-11-05T06:46:06.861Z,4.60
2022-11-05T06:48:35.082Z,4.60
2022-11-05T06:51:03.226Z,4.70
2022-11-05T06:53:31.922Z,4.70
2022-11-05T06:56:56.362Z,4.70
2022-11-05T06:59:23.993Z,4.90
2022-11-05T07:01:51.559Z,4.90
2022-11-05T07:04:19.154Z,5.00
2022-11-05T07:06:46.784Z,5.00
2022-11-05T07:09:14.956Z,5.20
2022-11-05T07:11:42.554Z,5.30
2022-11-05T07:14:10.095Z,5.30
2022-11-05T07:16:41.701Z,5.40
2022-11-05T07:19:09.321Z,5.50
2022-11-05T07:21:39.065Z,5.50
2022-11-05T07:25:49.276Z,5.60
2022-11-05T07:28:16.752Z,5.60
2022-11-05T07:30:44.493Z,5.60
2022-11-05T07:33:12.384Z,5.70
2022-11-05T07:35:40.012Z,5.80
2022-11-05T07:38:11.053Z,5.90
2022-11-05T07:40:38.636Z,6.00
2022-11-05T07:43:06.081Z,6.10
2022-11-05T07:45:33.558Z,6.20
2022-11-05T07:48:03.231Z,6.30
2022-11-05T07:50:35.461Z,6.40
2022-11-05T07:53:07.990Z,6.40
2022-11-05T07:55:36.056Z,6.50
2022-11-05T07:58:04.078Z,6.50
2022-11-05T08:00:32.350Z,6.50
2022-11-05T08:03:11.957Z,6.60
2022-11-05T08:05:43.252Z,6.70
2022-11-05T08:08:12.853Z,6.70
2022-11-05T08:10:41.295Z,6.80
2022-11-05T08:13:09.932Z,6.90
2022-11-05T08:15:40.793Z,6.80
2022-11-05T08:18:14.262Z,6.90
2022-11-05T08:20:51.097Z,6.90
2022-11-05T08:23:23.242Z,6.80
2022-11-05T08:25:50.817Z,6.90
2022-11-05T08:28:19.851Z,6.90
2022-11-05T08:30:51.594Z,6.80
2022-11-05T08:33:20.940Z,6.90
2022-11-05T08:35:48.894Z,6.90
2022-11-05T08:38:18.712Z,7.00
2022-11-05T08:40:58.225Z,6.90
2022-11-05T08:43:27.326Z,6.90
2022-11-05T08:46:41.571Z,7.00
2022-11-05T08:49:09.662Z,7.10
2022-11-05T08:51:38.534Z,7.10
2022-11-05T08:54:06.185Z,7.20
2022-11-05T08:56:42.006Z,7.10
2022-11-05T08:59:12.288Z,7.10
2022-11-05T09:01:39.977Z,7.10
2022-11-05T09:04:07.862Z,7.10
2022-11-05T09:06:35.427Z,7.10
2022-11-05T09:09:02.986Z,7.10
2022-11-05T09:11:56.927Z,7.30
2022-11-05T09:14:18.024Z,7.20
2022-11-05T09:16:45.506Z,7.30
2022-11-05T09:19:12.890Z,7.30
2022-11-05T09:21:41.127Z,7.20
2022-11-05T09:25:47.386Z,7.30
2022-11-05T09:28:21.370Z,7.30
2022-11-05T09:30:55.788Z,7.50
2022-11-05T09:33:25.779Z,7.40
2022-11-05T09:35:59.374Z,7.50
2022-11-05T09:38:26.908Z,7.50
2022-11-05T09:41:07.522Z,7.60
2022-11-05T09:43:49.856Z,7.60
2022-11-05T09:46:21.830Z,7.70
2022-11-05T09:49:45.806Z,7.70
2022-11-05T09:53:06.858Z,7.70
2022-11-05T10:00:25.314Z,7.80
2022-11-05T10:03:16.161Z,7.70
2022-11-05T10:06:16.448Z,7.70
2022-11-05T10:18:21.795Z,7.60
2022-11-05T10:20:55.832Z,7.50
2022-11-05T10:23:47.791Z,7.40
2022-11-05T10:43:07.513Z,7.70
2022-11-05T10:50:09.593Z,7.50
2022-11-05T10:53:15.082Z,7.50
2022-11-05T10:56:40.766Z,7.50
2022-11-05T10:59:24.277Z,7.50
2022-11-05T11:02:24.734Z,7.60
2022-11-05T11:05:33.030Z,7.50
2022-11-05T11:08:08.921Z,7.40
2022-11-05T11:33:24.150Z,7.40
2022-11-05T11:44:43.952Z,7.20
2022-11-05T11:47:38.771Z,7.30
2022-11-05T11:50:32.023Z,7.20
2022-11-05T11:53:47.322Z,7.20
2022-11-05T11:57:12.845Z,7.20
2022-11-05T12:30:29.663Z,7.30
2022-11-05T12:33:27.549Z,7.30
2022-11-05T12:36:03.924Z,7.30
2022-11-05T12:39:04.436Z,7.30
2022-11-05T12:45:13.350Z,7.40
2022-11-05T12:48:08.745Z,7.40
2022-11-05T13:06:30.653Z,7.10
2022-11-05T14:32:44.093Z,7.40
2022-11-05T14:53:28.816Z,7.00
2022-11-05T14:56:56.658Z,7.00
2022-11-05T14:59:31.568Z,6.90
2022-11-05T15:02:15.820Z,7.00
2022-11-05T15:04:47.495Z,7.00
2022-11-05T15:10:19.357Z,7.00
2022-11-05T15:13:06.143Z,7.00
2022-11-05T15:15:50.905Z,7.00
2022-11-05T15:18:46.182Z,7.00
2022-11-05T15:21:47.364Z,7.00
2022-11-05T15:24:46.029Z,6.90
2022-11-05T15:27:33.706Z,7.00
2022-11-05T15:30:33.050Z,7.00
2022-11-05T15:34:44.416Z,7.10
2022-11-05T18:57:37.426Z,6.30
2022-11-05T19:00:05.697Z,6.30
